Terminal Aerodrome Forecast
Issued by NWS Wilmington, OH

Current Version | Previous Version | Graphics & Text | Print | Product List | Glossary On
Versions: 1 2 3 4 5 6 7 8 9 10 11 12 13 14 15 16 17 18 19 20 21
175
FTUS41 KILN 041457 AAA
TAFCVG
TAF AMD
KCVG 041457Z 0415/0518 30010KT P6SM OVC025
     FM041800 28008KT P6SM BKN025
     FM042100 29007KT P6SM SCT035
     FM050000 26005KT P6SM SKC
     FM051400 23008KT P6SM SCT250=

USA.gov is the U.S. government's official web portal to all federal, state and local government web resources and services.